sensor_id;sensor_type;location;lat;lon;timestamp;temperature;humidity
74968;SHT30;63523;51.880;12.630;2023-05-07T00:00:37;10.35;79.37
74968;SHT30;63523;51.880;12.630;2023-05-07T00:03:03;10.32;79.62
74968;SHT30;63523;51.880;12.630;2023-05-07T00:05:28;10.26;80.00
74968;SHT30;63523;51.880;12.630;2023-05-07T00:07:53;10.15;80.48
74968;SHT30;63523;51.880;12.630;2023-05-07T00:10:19;10.12;80.72
74968;SHT30;63523;51.880;12.630;2023-05-07T00:12:44;10.16;80.43
74968;SHT30;63523;51.880;12.630;2023-05-07T00:15:10;10.12;80.21
74968;SHT30;63523;51.880;12.630;2023-05-07T00:17:35;10.15;80.57
74968;SHT30;63523;51.880;12.630;2023-05-07T00:20:02;10.18;80.31
74968;SHT30;63523;51.880;12.630;2023-05-07T00:22:28;10.08;80.25
74968;SHT30;63523;51.880;12.630;2023-05-07T00:24:55;10.15;80.72
74968;SHT30;63523;51.880;12.630;2023-05-07T00:27:20;10.15;80.20
74968;SHT30;63523;51.880;12.630;2023-05-07T00:29:45;10.09;80.81
74968;SHT30;63523;51.880;12.630;2023-05-07T00:32:11;10.11;80.56
74968;SHT30;63523;51.880;12.630;2023-05-07T00:34:36;10.16;80.86
74968;SHT30;63523;51.880;12.630;2023-05-07T00:37:01;10.16;80.57
74968;SHT30;63523;51.880;12.630;2023-05-07T00:39:27;10.07;80.78
74968;SHT30;63523;51.880;12.630;2023-05-07T00:41:52;10.12;80.75
74968;SHT30;63523;51.880;12.630;2023-05-07T00:44:17;10.05;81.07
74968;SHT30;63523;51.880;12.630;2023-05-07T00:46:43;10.19;80.55
74968;SHT30;63523;51.880;12.630;2023-05-07T00:49:10;10.29;80.12
74968;SHT30;63523;51.880;12.630;2023-05-07T00:51:35;10.24;80.29
74968;SHT30;63523;51.880;12.630;2023-05-07T00:54:02;10.29;80.55
74968;SHT30;63523;51.880;12.630;2023-05-07T00:56:28;10.32;80.23
74968;SHT30;63523;51.880;12.630;2023-05-07T00:58:53;10.25;80.42
74968;SHT30;63523;51.880;12.630;2023-05-07T01:01:19;10.18;80.95
74968;SHT30;63523;51.880;12.630;2023-05-07T01:03:44;10.15;81.12
74968;SHT30;63523;51.880;12.630;2023-05-07T01:06:11;10.14;80.88
74968;SHT30;63523;51.880;12.630;2023-05-07T01:08:39;10.19;80.92
74968;SHT30;63523;51.880;12.630;2023-05-07T01:11:05;10.24;80.75
74968;SHT30;63523;51.880;12.630;2023-05-07T01:13:31;10.16;81.06
74968;SHT30;63523;51.880;12.630;2023-05-07T01:15:57;10.15;81.31
74968;SHT30;63523;51.880;12.630;2023-05-07T01:18:22;10.24;81.06
74968;SHT30;63523;51.880;12.630;2023-05-07T01:20:48;10.32;80.41
74968;SHT30;63523;51.880;12.630;2023-05-07T01:23:13;10.28;80.79
74968;SHT30;63523;51.880;12.630;2023-05-07T01:25:40;10.21;80.81
74968;SHT30;63523;51.880;12.630;2023-05-07T01:28:05;10.25;80.16
74968;SHT30;63523;51.880;12.630;2023-05-07T01:30:32;10.16;80.92
74968;SHT30;63523;51.880;12.630;2023-05-07T01:33:04;10.29;80.29
74968;SHT30;63523;51.880;12.630;2023-05-07T01:35:37;10.26;80.25
74968;SHT30;63523;51.880;12.630;2023-05-07T01:38:04;10.29;80.02
74968;SHT30;63523;51.880;12.630;2023-05-07T01:40:31;10.26;80.15
74968;SHT30;63523;51.880;12.630;2023-05-07T01:42:56;10.22;80.48
74968;SHT30;63523;51.880;12.630;2023-05-07T01:45:22;10.31;79.90
74968;SHT30;63523;51.880;12.630;2023-05-07T01:47:49;10.29;79.73
74968;SHT30;63523;51.880;12.630;2023-05-07T01:50:17;10.38;79.55
74968;SHT30;63523;51.880;12.630;2023-05-07T01:52:43;10.35;79.29
74968;SHT30;63523;51.880;12.630;2023-05-07T01:55:09;10.28;79.74
74968;SHT30;63523;51.880;12.630;2023-05-07T01:57:34;10.35;79.12
74968;SHT30;63523;51.880;12.630;2023-05-07T01:59:59;10.28;79.40
74968;SHT30;63523;51.880;12.630;2023-05-07T02:02:25;10.31;79.42
74968;SHT30;63523;51.880;12.630;2023-05-07T02:04:50;10.35;78.64
74968;SHT30;63523;51.880;12.630;2023-05-07T02:07:15;10.38;78.89
74968;SHT30;63523;51.880;12.630;2023-05-07T02:09:41;10.36;79.06
74968;SHT30;63523;51.880;12.630;2023-05-07T02:12:06;10.38;78.48
74968;SHT30;63523;51.880;12.630;2023-05-07T02:14:31;10.33;79.04
74968;SHT30;63523;51.880;12.630;2023-05-07T02:16:56;10.32;78.68
74968;SHT30;63523;51.880;12.630;2023-05-07T02:19:22;10.35;78.40
74968;SHT30;63523;51.880;12.630;2023-05-07T02:21:47;10.35;78.07
74968;SHT30;63523;51.880;12.630;2023-05-07T02:24:13;10.41;77.92
74968;SHT30;63523;51.880;12.630;2023-05-07T02:26:39;10.38;77.45
74968;SHT30;63523;51.880;12.630;2023-05-07T02:29:05;10.42;78.40
74968;SHT30;63523;51.880;12.630;2023-05-07T02:31:30;10.43;77.89
74968;SHT30;63523;51.880;12.630;2023-05-07T02:33:55;10.50;77.73
74968;SHT30;63523;51.880;12.630;2023-05-07T02:36:21;10.45;77.72
74968;SHT30;63523;51.880;12.630;2023-05-07T02:38:46;10.45;77.98
74968;SHT30;63523;51.880;12.630;2023-05-07T02:41:11;10.41;78.29
74968;SHT30;63523;51.880;12.630;2023-05-07T02:43:36;10.39;78.46
74968;SHT30;63523;51.880;12.630;2023-05-07T02:46:02;10.43;78.07
74968;SHT30;63523;51.880;12.630;2023-05-07T02:48:28;10.33;78.26
74968;SHT30;63523;51.880;12.630;2023-05-07T02:50:53;10.33;78.46
74968;SHT30;63523;51.880;12.630;2023-05-07T02:53:18;10.41;77.84
74968;SHT30;63523;51.880;12.630;2023-05-07T02:55:43;10.39;77.71
74968;SHT30;63523;51.880;12.630;2023-05-07T02:58:09;10.39;77.60
74968;SHT30;63523;51.880;12.630;2023-05-07T03:00:34;10.42;77.50
74968;SHT30;63523;51.880;12.630;2023-05-07T03:02:59;10.33;78.09
74968;SHT30;63523;51.880;12.630;2023-05-07T03:05:25;10.36;77.40
74968;SHT30;63523;51.880;12.630;2023-05-07T03:07:50;10.31;77.53
74968;SHT30;63523;51.880;12.630;2023-05-07T03:10:15;10.36;76.84
74968;SHT30;63523;51.880;12.630;2023-05-07T03:12:40;10.39;76.67
74968;SHT30;63523;51.880;12.630;2023-05-07T03:15:06;10.32;76.56
74968;SHT30;63523;51.880;12.630;2023-05-07T03:17:32;10.36;76.17
74968;SHT30;63523;51.880;12.630;2023-05-07T03:19:57;10.36;75.08
74968;SHT30;63523;51.880;12.630;2023-05-07T03:22:22;10.25;76.21
74968;SHT30;63523;51.880;12.630;2023-05-07T03:24:47;10.25;76.27
74968;SHT30;63523;51.880;12.630;2023-05-07T03:27:12;10.33;75.56
74968;SHT30;63523;51.880;12.630;2023-05-07T03:29:38;10.21;75.94
74968;SHT30;63523;51.880;12.630;2023-05-07T03:32:03;10.31;75.33
74968;SHT30;63523;51.880;12.630;2023-05-07T03:34:29;10.22;75.82
74968;SHT30;63523;51.880;12.630;2023-05-07T03:36:54;10.29;75.85
74968;SHT30;63523;51.880;12.630;2023-05-07T03:39:19;10.26;76.02
74968;SHT30;63523;51.880;12.630;2023-05-07T03:41:44;10.29;75.74
74968;SHT30;63523;51.880;12.630;2023-05-07T03:44:09;10.38;75.07
74968;SHT30;63523;51.880;12.630;2023-05-07T03:46:35;10.36;75.23
74968;SHT30;63523;51.880;12.630;2023-05-07T03:49:00;10.36;75.27
74968;SHT30;63523;51.880;12.630;2023-05-07T03:51:25;10.32;75.46
74968;SHT30;63523;51.880;12.630;2023-05-07T03:53:51;10.24;75.47
74968;SHT30;63523;51.880;12.630;2023-05-07T03:56:22;10.24;75.73
74968;SHT30;63523;51.880;12.630;2023-05-07T03:58:47;10.21;75.85
74968;SHT30;63523;51.880;12.630;2023-05-07T04:01:13;10.31;75.24
74968;SHT30;63523;51.880;12.630;2023-05-07T04:03:38;10.38;75.21
74968;SHT30;63523;51.880;12.630;2023-05-07T04:06:03;10.42;74.85
74968;SHT30;63523;51.880;12.630;2023-05-07T04:08:29;10.36;75.30
74968;SHT30;63523;51.880;12.630;2023-05-07T04:10:58;10.36;75.25
74968;SHT30;63523;51.880;12.630;2023-05-07T04:13:23;10.26;76.08
74968;SHT30;63523;51.880;12.630;2023-05-07T04:15:49;10.24;76.48
74968;SHT30;63523;51.880;12.630;2023-05-07T04:18:14;10.26;75.97
74968;SHT30;63523;51.880;12.630;2023-05-07T04:20:40;10.36;75.48
74968;SHT30;63523;51.880;12.630;2023-05-07T04:23:05;10.33;75.53
74968;SHT30;63523;51.880;12.630;2023-05-07T04:25:30;10.31;75.78
74968;SHT30;63523;51.880;12.630;2023-05-07T04:27:56;10.29;75.68
74968;SHT30;63523;51.880;12.630;2023-05-07T04:30:21;10.24;75.55
74968;SHT30;63523;51.880;12.630;2023-05-07T04:32:46;10.29;76.07
74968;SHT30;63523;51.880;12.630;2023-05-07T04:35:13;10.31;76.18
74968;SHT30;63523;51.880;12.630;2023-05-07T04:37:38;10.38;75.53
74968;SHT30;63523;51.880;12.630;2023-05-07T04:40:03;10.39;75.43
74968;SHT30;63523;51.880;12.630;2023-05-07T04:42:29;10.33;75.74
74968;SHT30;63523;51.880;12.630;2023-05-07T04:44:54;10.39;74.88
74968;SHT30;63523;51.880;12.630;2023-05-07T04:47:20;10.42;75.37
74968;SHT30;63523;51.880;12.630;2023-05-07T04:49:45;10.43;75.48
74968;SHT30;63523;51.880;12.630;2023-05-07T04:52:10;10.38;75.69
74968;SHT30;63523;51.880;12.630;2023-05-07T04:54:36;10.38;76.31
74968;SHT30;63523;51.880;12.630;2023-05-07T04:57:03;10.49;75.46
74968;SHT30;63523;51.880;12.630;2023-05-07T04:59:29;10.53;74.92
74968;SHT30;63523;51.880;12.630;2023-05-07T05:01:54;10.52;75.60
74968;SHT30;63523;51.880;12.630;2023-05-07T05:04:20;10.48;75.80
74968;SHT30;63523;51.880;12.630;2023-05-07T05:06:45;10.56;75.26
74968;SHT30;63523;51.880;12.630;2023-05-07T05:09:10;10.53;75.55
74968;SHT30;63523;51.880;12.630;2023-05-07T05:11:36;10.50;75.48
74968;SHT30;63523;51.880;12.630;2023-05-07T05:14:01;10.46;75.68
74968;SHT30;63523;51.880;12.630;2023-05-07T05:16:27;10.46;75.40
74968;SHT30;63523;51.880;12.630;2023-05-07T05:18:52;10.49;74.60
74968;SHT30;63523;51.880;12.630;2023-05-07T05:21:19;10.45;74.48
74968;SHT30;63523;51.880;12.630;2023-05-07T05:23:44;10.39;74.93
74968;SHT30;63523;51.880;12.630;2023-05-07T05:26:10;10.39;74.67
74968;SHT30;63523;51.880;12.630;2023-05-07T05:28:35;10.33;74.30
74968;SHT30;63523;51.880;12.630;2023-05-07T05:31:01;10.21;74.52
74968;SHT30;63523;51.880;12.630;2023-05-07T05:33:26;10.25;74.55
74968;SHT30;63523;51.880;12.630;2023-05-07T05:35:53;10.21;74.52
74968;SHT30;63523;51.880;12.630;2023-05-07T05:38:19;10.18;74.29
74968;SHT30;63523;51.880;12.630;2023-05-07T05:40:44;10.19;74.43
74968;SHT30;63523;51.880;12.630;2023-05-07T05:43:09;10.26;74.58
74968;SHT30;63523;51.880;12.630;2023-05-07T05:45:35;10.38;74.13
74968;SHT30;63523;51.880;12.630;2023-05-07T05:48:00;10.42;74.68
74968;SHT30;63523;51.880;12.630;2023-05-07T05:50:25;10.48;74.01
74968;SHT30;63523;51.880;12.630;2023-05-07T05:52:51;10.49;74.19
74968;SHT30;63523;51.880;12.630;2023-05-07T05:55:16;10.55;74.39
74968;SHT30;63523;51.880;12.630;2023-05-07T05:57:41;10.61;74.29
74968;SHT30;63523;51.880;12.630;2023-05-07T06:00:07;10.73;73.51
74968;SHT30;63523;51.880;12.630;2023-05-07T06:02:34;10.77;73.48
74968;SHT30;63523;51.880;12.630;2023-05-07T06:04:59;10.80;73.26
74968;SHT30;63523;51.880;12.630;2023-05-07T06:07:25;10.77;74.03
74968;SHT30;63523;51.880;12.630;2023-05-07T06:09:50;10.83;73.66
74968;SHT30;63523;51.880;12.630;2023-05-07T06:12:15;10.85;73.65
74968;SHT30;63523;51.880;12.630;2023-05-07T06:14:42;10.87;73.60
74968;SHT30;63523;51.880;12.630;2023-05-07T06:17:08;10.85;73.88
74968;SHT30;63523;51.880;12.630;2023-05-07T06:19:33;10.90;73.84
74968;SHT30;63523;51.880;12.630;2023-05-07T06:21:58;10.88;74.28
74968;SHT30;63523;51.880;12.630;2023-05-07T06:24:26;10.88;74.23
74968;SHT30;63523;51.880;12.630;2023-05-07T06:26:51;10.88;74.18
74968;SHT30;63523;51.880;12.630;2023-05-07T06:29:16;10.88;74.83
74968;SHT30;63523;51.880;12.630;2023-05-07T06:31:42;10.78;75.16
74968;SHT30;63523;51.880;12.630;2023-05-07T06:34:07;10.67;76.01
74968;SHT30;63523;51.880;12.630;2023-05-07T06:36:32;10.69;76.10
74968;SHT30;63523;51.880;12.630;2023-05-07T06:38:58;10.66;76.67
74968;SHT30;63523;51.880;12.630;2023-05-07T06:41:23;10.66;76.81
74968;SHT30;63523;51.880;12.630;2023-05-07T06:43:48;10.66;76.84
74968;SHT30;63523;51.880;12.630;2023-05-07T06:46:13;10.67;77.21
74968;SHT30;63523;51.880;12.630;2023-05-07T06:48:40;10.71;76.62
74968;SHT30;63523;51.880;12.630;2023-05-07T06:51:05;10.73;76.32
74968;SHT30;63523;51.880;12.630;2023-05-07T06:53:30;10.70;76.45
74968;SHT30;63523;51.880;12.630;2023-05-07T06:55:56;10.74;77.13
74968;SHT30;63523;51.880;12.630;2023-05-07T06:58:21;10.76;76.98
74968;SHT30;63523;51.880;12.630;2023-05-07T07:00:46;10.84;76.13
74968;SHT30;63523;51.880;12.630;2023-05-07T07:03:12;10.91;75.81
74968;SHT30;63523;51.880;12.630;2023-05-07T07:05:37;10.98;75.03
74968;SHT30;63523;51.880;12.630;2023-05-07T07:08:02;10.88;75.60
74968;SHT30;63523;51.880;12.630;2023-05-07T07:10:27;10.87;75.88
74968;SHT30;63523;51.880;12.630;2023-05-07T07:12:53;10.81;75.72
74968;SHT30;63523;51.880;12.630;2023-05-07T07:15:19;10.85;75.53
74968;SHT30;63523;51.880;12.630;2023-05-07T07:17:46;10.85;75.46
74968;SHT30;63523;51.880;12.630;2023-05-07T07:20:11;10.94;75.10
74968;SHT30;63523;51.880;12.630;2023-05-07T07:22:36;10.93;75.12
74968;SHT30;63523;51.880;12.630;2023-05-07T07:25:02;10.93;74.90
74968;SHT30;63523;51.880;12.630;2023-05-07T07:27:27;10.90;74.76
74968;SHT30;63523;51.880;12.630;2023-05-07T07:29:52;10.93;74.16
74968;SHT30;63523;51.880;12.630;2023-05-07T07:32:17;10.90;74.23
74968;SHT30;63523;51.880;12.630;2023-05-07T07:34:43;10.87;74.50
74968;SHT30;63523;51.880;12.630;2023-05-07T07:37:08;10.88;74.49
74968;SHT30;63523;51.880;12.630;2023-05-07T07:39:34;10.83;74.90
74968;SHT30;63523;51.880;12.630;2023-05-07T07:41:59;10.91;74.05
74968;SHT30;63523;51.880;12.630;2023-05-07T07:44:25;10.98;73.66
74968;SHT30;63523;51.880;12.630;2023-05-07T07:46:51;11.10;73.21
74968;SHT30;63523;51.880;12.630;2023-05-07T07:49:16;11.11;72.85
74968;SHT30;63523;51.880;12.630;2023-05-07T07:51:42;11.11;72.17
74968;SHT30;63523;51.880;12.630;2023-05-07T07:54:07;11.10;72.49
74968;SHT30;63523;51.880;12.630;2023-05-07T07:56:33;11.08;72.11
74968;SHT30;63523;51.880;12.630;2023-05-07T07:59:01;11.10;72.40
74968;SHT30;63523;51.880;12.630;2023-05-07T08:01:29;11.15;72.85
74968;SHT30;63523;51.880;12.630;2023-05-07T08:03:54;11.18;72.74
74968;SHT30;63523;51.880;12.630;2023-05-07T08:06:19;11.26;72.76
74968;SHT30;63523;51.880;12.630;2023-05-07T08:08:44;11.33;72.68
74968;SHT30;63523;51.880;12.630;2023-05-07T08:11:10;11.39;72.32
74968;SHT30;63523;51.880;12.630;2023-05-07T08:13:36;11.49;71.65
74968;SHT30;63523;51.880;12.630;2023-05-07T08:16:03;11.52;72.17
74968;SHT30;63523;51.880;12.630;2023-05-07T08:18:28;11.39;72.12
74968;SHT30;63523;51.880;12.630;2023-05-07T08:20:54;11.40;73.04
74968;SHT30;63523;51.880;12.630;2023-05-07T08:23:20;11.46;72.52
74968;SHT30;63523;51.880;12.630;2023-05-07T08:25:45;11.65;71.90
74968;SHT30;63523;51.880;12.630;2023-05-07T08:28:10;11.78;71.35
74968;SHT30;63523;51.880;12.630;2023-05-07T08:30:36;11.80;71.50
74968;SHT30;63523;51.880;12.630;2023-05-07T08:33:01;11.81;71.02
74968;SHT30;63523;51.880;12.630;2023-05-07T08:35:26;11.84;72.07
74968;SHT30;63523;51.880;12.630;2023-05-07T08:37:53;11.87;72.11
74968;SHT30;63523;51.880;12.630;2023-05-07T08:40:18;12.10;71.94
74968;SHT30;63523;51.880;12.630;2023-05-07T08:42:44;12.24;70.95
74968;SHT30;63523;51.880;12.630;2023-05-07T08:45:10;12.29;69.96
74968;SHT30;63523;51.880;12.630;2023-05-07T08:47:44;12.26;70.44
74968;SHT30;63523;51.880;12.630;2023-05-07T08:50:11;12.26;70.82
74968;SHT30;63523;51.880;12.630;2023-05-07T08:52:36;12.33;69.05
74968;SHT30;63523;51.880;12.630;2023-05-07T08:55:02;12.25;69.89
74968;SHT30;63523;51.880;12.630;2023-05-07T08:57:28;12.17;69.89
74968;SHT30;63523;51.880;12.630;2023-05-07T08:59:53;12.14;70.89
74968;SHT30;63523;51.880;12.630;2023-05-07T09:02:19;12.25;70.42
74968;SHT30;63523;51.880;12.630;2023-05-07T09:04:44;12.39;70.43
74968;SHT30;63523;51.880;12.630;2023-05-07T09:07:09;12.32;69.42
74968;SHT30;63523;51.880;12.630;2023-05-07T09:09:35;12.36;70.10
74968;SHT30;63523;51.880;12.630;2023-05-07T09:12:00;12.42;69.07
74968;SHT30;63523;51.880;12.630;2023-05-07T09:14:27;12.46;69.15
74968;SHT30;63523;51.880;12.630;2023-05-07T09:16:52;12.43;68.26
74968;SHT30;63523;51.880;12.630;2023-05-07T09:19:22;12.39;68.56
74968;SHT30;63523;51.880;12.630;2023-05-07T09:21:48;12.39;68.92
74968;SHT30;63523;51.880;12.630;2023-05-07T09:24:15;12.40;69.10
74968;SHT30;63523;51.880;12.630;2023-05-07T09:26:41;12.39;69.46
74968;SHT30;63523;51.880;12.630;2023-05-07T09:29:07;12.53;70.26
74968;SHT30;63523;51.880;12.630;2023-05-07T09:31:37;12.73;68.36
74968;SHT30;63523;51.880;12.630;2023-05-07T09:34:04;12.83;67.72
74968;SHT30;63523;51.880;12.630;2023-05-07T09:36:31;12.90;66.47
74968;SHT30;63523;51.880;12.630;2023-05-07T09:38:59;12.90;66.57
74968;SHT30;63523;51.880;12.630;2023-05-07T09:41:25;12.98;66.18
74968;SHT30;63523;51.880;12.630;2023-05-07T09:43:54;13.11;64.84
74968;SHT30;63523;51.880;12.630;2023-05-07T09:46:30;13.11;64.84
74968;SHT30;63523;51.880;12.630;2023-05-07T09:48:57;13.04;65.48
74968;SHT30;63523;51.880;12.630;2023-05-07T09:51:34;12.86;66.21
74968;SHT30;63523;51.880;12.630;2023-05-07T09:54:04;12.75;66.13
74968;SHT30;63523;51.880;12.630;2023-05-07T09:56:30;12.70;67.80
74968;SHT30;63523;51.880;12.630;2023-05-07T09:58:57;12.69;67.01
74968;SHT30;63523;51.880;12.630;2023-05-07T10:01:25;12.60;66.91
74968;SHT30;63523;51.880;12.630;2023-05-07T10:03:51;12.48;67.40
74968;SHT30;63523;51.880;12.630;2023-05-07T10:06:16;12.56;67.44
74968;SHT30;63523;51.880;12.630;2023-05-07T10:08:43;12.53;68.29
74968;SHT30;63523;51.880;12.630;2023-05-07T10:11:09;12.56;66.99
74968;SHT30;63523;51.880;12.630;2023-05-07T10:13:34;12.72;67.70
74968;SHT30;63523;51.880;12.630;2023-05-07T10:16:06;13.01;67.21
74968;SHT30;63523;51.880;12.630;2023-05-07T10:18:32;13.14;66.20
74968;SHT30;63523;51.880;12.630;2023-05-07T10:21:17;13.22;66.17
74968;SHT30;63523;51.880;12.630;2023-05-07T10:23:50;13.25;66.48
74968;SHT30;63523;51.880;12.630;2023-05-07T10:26:17;13.26;64.51
74968;SHT30;63523;51.880;12.630;2023-05-07T10:28:46;13.11;65.44
74968;SHT30;63523;51.880;12.630;2023-05-07T10:33:57;12.98;65.99
74968;SHT30;63523;51.880;12.630;2023-05-07T10:36:24;13.12;66.59
74968;SHT30;63523;51.880;12.630;2023-05-07T10:38:50;12.93;65.99
74968;SHT30;63523;51.880;12.630;2023-05-07T10:41:16;13.05;66.52
74968;SHT30;63523;51.880;12.630;2023-05-07T10:43:45;13.08;66.85
74968;SHT30;63523;51.880;12.630;2023-05-07T10:46:13;12.98;66.79
74968;SHT30;63523;51.880;12.630;2023-05-07T10:51:27;12.76;66.66
74968;SHT30;63523;51.880;12.630;2023-05-07T10:56:40;12.55;69.09
74968;SHT30;63523;51.880;12.630;2023-05-07T11:02:02;12.79;66.99
74968;SHT30;63523;51.880;12.630;2023-05-07T11:04:29;12.67;66.90
74968;SHT30;63523;51.880;12.630;2023-05-07T11:15:14;12.80;67.98
74968;SHT30;63523;51.880;12.630;2023-05-07T11:17:53;12.93;66.71
74968;SHT30;63523;51.880;12.630;2023-05-07T11:20:18;12.91;65.48
74968;SHT30;63523;51.880;12.630;2023-05-07T11:22:44;13.03;65.80
74968;SHT30;63523;51.880;12.630;2023-05-07T11:25:09;13.12;64.95
74968;SHT30;63523;51.880;12.630;2023-05-07T11:27:35;13.10;65.02
74968;SHT30;63523;51.880;12.630;2023-05-07T11:30:00;12.97;65.67
74968;SHT30;63523;51.880;12.630;2023-05-07T11:32:30;12.84;66.74
74968;SHT30;63523;51.880;12.630;2023-05-07T11:35:00;12.76;66.86
74968;SHT30;63523;51.880;12.630;2023-05-07T11:37:26;12.66;66.69
74968;SHT30;63523;51.880;12.630;2023-05-07T11:40:03;12.76;66.55
74968;SHT30;63523;51.880;12.630;2023-05-07T11:42:39;12.94;66.35
74968;SHT30;63523;51.880;12.630;2023-05-07T11:45:06;12.97;66.19
74968;SHT30;63523;51.880;12.630;2023-05-07T11:47:32;13.01;66.29
74968;SHT30;63523;51.880;12.630;2023-05-07T11:50:05;13.07;66.89
74968;SHT30;63523;51.880;12.630;2023-05-07T11:52:31;13.16;65.81
74968;SHT30;63523;51.880;12.630;2023-05-07T11:54:58;13.25;64.59
74968;SHT30;63523;51.880;12.630;2023-05-07T11:57:25;13.16;64.71
74968;SHT30;63523;51.880;12.630;2023-05-07T11:59:55;13.04;64.95
74968;SHT30;63523;51.880;12.630;2023-05-07T12:02:20;13.01;65.34
74968;SHT30;63523;51.880;12.630;2023-05-07T12:04:45;13.14;65.51
74968;SHT30;63523;51.880;12.630;2023-05-07T12:07:14;13.35;63.69
74968;SHT30;63523;51.880;12.630;2023-05-07T12:09:41;13.36;63.83
74968;SHT30;63523;51.880;12.630;2023-05-07T12:12:07;13.36;63.93
74968;SHT30;63523;51.880;12.630;2023-05-07T12:14:32;13.28;64.47
74968;SHT30;63523;51.880;12.630;2023-05-07T12:16:58;13.22;65.33
74968;SHT30;63523;51.880;12.630;2023-05-07T12:19:27;13.34;65.45
74968;SHT30;63523;51.880;12.630;2023-05-07T12:21:53;13.50;65.37
74968;SHT30;63523;51.880;12.630;2023-05-07T12:24:18;13.70;64.50
74968;SHT30;63523;51.880;12.630;2023-05-07T12:26:43;13.83;63.89
74968;SHT30;63523;51.880;12.630;2023-05-07T12:29:09;13.97;62.06
74968;SHT30;63523;51.880;12.630;2023-05-07T12:31:34;13.88;61.45
74968;SHT30;63523;51.880;12.630;2023-05-07T12:33:59;13.74;62.18
74968;SHT30;63523;51.880;12.630;2023-05-07T12:36:25;13.80;64.28
74968;SHT30;63523;51.880;12.630;2023-05-07T12:38:51;13.93;62.09
74968;SHT30;63523;51.880;12.630;2023-05-07T12:41:16;14.00;61.96
74968;SHT30;63523;51.880;12.630;2023-05-07T12:43:44;14.04;63.03
74968;SHT30;63523;51.880;12.630;2023-05-07T12:46:10;14.07;61.82
74968;SHT30;63523;51.880;12.630;2023-05-07T12:48:37;13.95;61.58
74968;SHT30;63523;51.880;12.630;2023-05-07T12:51:02;14.07;61.66
74968;SHT30;63523;51.880;12.630;2023-05-07T12:53:29;14.10;61.54
74968;SHT30;63523;51.880;12.630;2023-05-07T12:55:57;14.03;60.92
74968;SHT30;63523;51.880;12.630;2023-05-07T12:58:26;13.94;61.94
74968;SHT30;63523;51.880;12.630;2023-05-07T13:00:52;13.95;61.60
74968;SHT30;63523;51.880;12.630;2023-05-07T13:03:26;14.07;61.89
74968;SHT30;63523;51.880;12.630;2023-05-07T13:05:52;14.22;62.27
74968;SHT30;63523;51.880;12.630;2023-05-07T13:08:37;14.32;62.42
74968;SHT30;63523;51.880;12.630;2023-05-07T13:11:07;14.52;62.11
74968;SHT30;63523;51.880;12.630;2023-05-07T13:13:34;14.60;61.36
74968;SHT30;63523;51.880;12.630;2023-05-07T13:16:03;14.39;60.67
74968;SHT30;63523;51.880;12.630;2023-05-07T13:18:30;14.40;61.35
74968;SHT30;63523;51.880;12.630;2023-05-07T13:20:55;14.56;60.97
74968;SHT30;63523;51.880;12.630;2023-05-07T13:23:21;14.60;59.47
74968;SHT30;63523;51.880;12.630;2023-05-07T13:25:47;14.60;60.79
74968;SHT30;63523;51.880;12.630;2023-05-07T13:28:12;14.70;59.36
74968;SHT30;63523;51.880;12.630;2023-05-07T13:30:37;14.79;59.53
74968;SHT30;63523;51.880;12.630;2023-05-07T13:33:03;14.90;60.05
74968;SHT30;63523;51.880;12.630;2023-05-07T13:35:28;15.01;58.72
74968;SHT30;63523;51.880;12.630;2023-05-07T13:37:54;15.05;59.45
74968;SHT30;63523;51.880;12.630;2023-05-07T13:40:20;15.10;59.00
74968;SHT30;63523;51.880;12.630;2023-05-07T13:42:46;15.24;59.23
74968;SHT30;63523;51.880;12.630;2023-05-07T13:45:11;15.38;57.84
74968;SHT30;63523;51.880;12.630;2023-05-07T13:47:39;15.50;56.63
74968;SHT30;63523;51.880;12.630;2023-05-07T13:50:05;15.50;57.53
74968;SHT30;63523;51.880;12.630;2023-05-07T13:52:30;15.22;57.11
74968;SHT30;63523;51.880;12.630;2023-05-07T13:54:55;15.01;58.37
74968;SHT30;63523;51.880;12.630;2023-05-07T13:57:21;14.67;58.09
74968;SHT30;63523;51.880;12.630;2023-05-07T13:59:46;14.42;60.44
74968;SHT30;63523;51.880;12.630;2023-05-07T14:02:12;14.29;59.07
74968;SHT30;63523;51.880;12.630;2023-05-07T14:04:37;14.43;59.33
74968;SHT30;63523;51.880;12.630;2023-05-07T14:07:02;14.50;59.38
74968;SHT30;63523;51.880;12.630;2023-05-07T14:09:28;14.72;59.20
74968;SHT30;63523;51.880;12.630;2023-05-07T14:11:53;14.88;57.20
74968;SHT30;63523;51.880;12.630;2023-05-07T14:14:18;14.94;57.11
74968;SHT30;63523;51.880;12.630;2023-05-07T14:16:44;14.88;57.10
74968;SHT30;63523;51.880;12.630;2023-05-07T14:19:10;14.87;56.47
74968;SHT30;63523;51.880;12.630;2023-05-07T14:21:36;14.76;57.71
74968;SHT30;63523;51.880;12.630;2023-05-07T14:24:01;14.80;56.60
74968;SHT30;63523;51.880;12.630;2023-05-07T14:26:26;14.91;57.08
74968;SHT30;63523;51.880;12.630;2023-05-07T14:28:52;15.10;58.03
74968;SHT30;63523;51.880;12.630;2023-05-07T14:31:20;15.01;56.04
74968;SHT30;63523;51.880;12.630;2023-05-07T14:33:45;14.88;55.86
74968;SHT30;63523;51.880;12.630;2023-05-07T14:36:10;14.74;56.40
74968;SHT30;63523;51.880;12.630;2023-05-07T14:38:36;14.53;57.07
74968;SHT30;63523;51.880;12.630;2023-05-07T14:41:01;14.57;57.60
74968;SHT30;63523;51.880;12.630;2023-05-07T14:43:26;14.67;57.09
74968;SHT30;63523;51.880;12.630;2023-05-07T14:45:51;14.85;57.66
74968;SHT30;63523;51.880;12.630;2023-05-07T14:48:17;14.91;55.68
74968;SHT30;63523;51.880;12.630;2023-05-07T14:50:42;14.84;57.10
74968;SHT30;63523;51.880;12.630;2023-05-07T14:53:07;14.80;56.01
74968;SHT30;63523;51.880;12.630;2023-05-07T14:55:34;14.84;56.22
74968;SHT30;63523;51.880;12.630;2023-05-07T14:57:59;14.74;55.90
74968;SHT30;63523;51.880;12.630;2023-05-07T15:00:25;14.66;56.91
74968;SHT30;63523;51.880;12.630;2023-05-07T15:02:50;14.65;57.07
74968;SHT30;63523;51.880;12.630;2023-05-07T15:05:15;14.46;57.60
74968;SHT30;63523;51.880;12.630;2023-05-07T15:07:41;14.43;58.16
74968;SHT30;63523;51.880;12.630;2023-05-07T15:10:06;14.28;57.15
74968;SHT30;63523;51.880;12.630;2023-05-07T15:12:32;14.25;57.75
74968;SHT30;63523;51.880;12.630;2023-05-07T15:14:57;14.17;57.77
74968;SHT30;63523;51.880;12.630;2023-05-07T15:17:22;14.24;58.31
74968;SHT30;63523;51.880;12.630;2023-05-07T15:19:48;14.39;59.07
74968;SHT30;63523;51.880;12.630;2023-05-07T15:22:13;14.55;56.61
74968;SHT30;63523;51.880;12.630;2023-05-07T15:24:38;14.45;56.82
74968;SHT30;63523;51.880;12.630;2023-05-07T15:27:03;14.43;57.18